Terminal Aerodrome Forecast
Issued by NWS

Current Version | Previous Version | Text Only | Print | Product List | Glossary Off
Versions: 1 2 3 4 5 6 7 8 9 10 11 12 13 14

858
FTUS41 KPBZ 260520
TAFHLG
TAF
KHLG 260520Z 2606/2706 24004KT P6SM SCT090
     FM261700 25011G22KT P6SM BKN090
     FM270000 26007KT P6SM BKN250=

USA.gov is the U.S. government's official web portal to all federal, state and local government web resources and services.